Time;durP1;ratioP1;P1;durP2;ratioP2;P2;SDS_P1;SDS_P2;PMS_P1;PMS_P2;Temp;Humidity;BMP_temperature;BMP_pressure;BME280_temperature;BME280_humidity;BME280_pressure;Samples;Min_cycle;Max_cycle;Signal;HPM_P1;HPM_P2
2024/04/07 00:00:22;;;;;;;6.60;1.90;;;;;;;11.51;72.89;99462.48;78953;1303;3013662;-59
2024/04/07 00:02:53;;;;;;;4.80;1.50;;;;;;;11.48;72.68;99463.41;77592;1302;3053307;-58
2024/04/07 00:05:20;;;;;;;3.00;1.60;;;;;;;11.26;73.66;99465.80;78999;1306;3011594;-62
2024/04/07 00:07:49;;;;;;;7.20;1.90;;;;;;;11.16;74.34;99461.56;78480;1306;3011970;-58
2024/04/07 00:10:16;;;;;;;4.10;1.80;;;;;;;11.09;74.61;99465.85;79064;1306;3012773;-59
2024/04/07 00:12:43;;;;;;;4.00;1.70;;;;;;;11.02;75.10;99467.15;78870;1306;3011588;-60
2024/04/07 00:15:11;;;;;;;4.00;1.90;;;;;;;10.94;75.62;99473.81;77747;1306;3025861;-59
2024/04/07 00:17:38;;;;;;;3.20;1.70;;;;;;;10.87;76.12;99477.05;78976;1302;3013591;-57
2024/04/07 00:20:05;;;;;;;5.20;2.40;;;;;;;10.97;75.23;99476.77;79127;1303;3011696;-61
2024/04/07 00:22:33;;;;;;;2.40;1.50;;;;;;;10.96;75.67;99475.25;77918;1303;3026001;-61
2024/04/07 00:25:01;;;;;;;5.00;1.50;;;;;;;11.55;74.68;99475.05;78950;1303;3013161;-58
2024/04/07 00:27:27;;;;;;;4.50;1.50;;;;;;;12.14;72.72;99471.91;78877;1303;3013194;-61
2024/04/07 00:29:55;;;;;;;3.90;2.50;;;;;;;12.10;71.77;99469.54;77585;1306;3057666;-58
2024/04/07 00:32:22;;;;;;;4.30;2.00;;;;;;;11.91;72.25;99475.20;79220;1302;3013196;-59
2024/04/07 00:34:49;;;;;;;3.50;1.70;;;;;;;11.58;73.23;99476.23;78814;1303;3012921;-59
2024/04/07 00:37:17;;;;;;;4.40;1.90;;;;;;;11.45;73.57;99474.26;77622;1303;3025823;-58
2024/04/07 00:39:43;;;;;;;6.20;2.10;;;;;;;11.23;74.62;99471.48;78855;1302;3018989;-60
2024/04/07 00:42:10;;;;;;;6.80;2.10;;;;;;;11.17;74.81;99472.58;78759;1306;3011794;-59
2024/04/07 00:44:38;;;;;;;5.30;2.10;;;;;;;11.05;75.22;99476.10;77824;1306;3027938;-58
2024/04/07 00:47:05;;;;;;;4.80;2.20;;;;;;;10.91;76.12;99477.30;79131;1303;3013232;-60
2024/04/07 00:49:32;;;;;;;4.10;2.00;;;;;;;10.80;76.63;99473.25;78929;1306;3013747;-60
2024/04/07 00:52:00;;;;;;;4.40;2.20;;;;;;;10.73;77.36;99468.94;77743;1306;3027975;-60
2024/04/07 00:54:27;;;;;;;3.10;1.60;;;;;;;11.26;76.49;99467.02;78971;1306;3012973;-58
2024/04/07 00:56:53;;;;;;;3.50;2.00;;;;;;;11.78;74.29;99465.70;78852;1302;3013021;-59
2024/04/07 00:59:22;;;;;;;4.40;2.50;;;;;;;11.87;72.83;99468.42;77574;1303;3057663;-59
2024/04/07 01:01:49;;;;;;;5.40;2.40;;;;;;;11.61;73.21;99473.42;78842;1309;3013921;-60
2024/04/07 01:04:15;;;;;;;4.90;2.30;;;;;;;11.34;74.30;99475.50;78791;1302;3013296;-60
2024/04/07 01:06:44;;;;;;;4.90;2.00;;;;;;;11.30;74.24;99467.11;77745;1309;3052073;-59
2024/04/07 01:09:11;;;;;;;5.70;2.00;;;;;;;11.13;74.92;99471.04;78766;1306;3012885;-59
2024/04/07 01:11:37;;;;;;;6.10;2.80;;;;;;;11.01;75.43;99475.25;78736;1306;3013146;-59
2024/04/07 01:14:05;;;;;;;4.10;2.30;;;;;;;11.03;75.23;99476.38;77653;1303;3028539;-63
2024/04/07 01:16:32;;;;;;;5.60;2.40;;;;;;;10.89;75.92;99475.83;78957;1303;3013576;-59
2024/04/07 01:18:58;;;;;;;3.40;1.90;;;;;;;11.06;75.53;99479.89;78836;1303;3011956;-60
2024/04/07 01:21:26;;;;;;;3.60;1.80;;;;;;;11.51;74.75;99478.08;77722;1306;3025997;-57
2024/04/07 01:23:53;;;;;;;4.90;2.30;;;;;;;11.81;72.86;99480.39;78913;1306;3018427;-59
2024/04/07 01:26:21;;;;;;;6.40;2.60;;;;;;;11.70;72.89;99476.91;78723;1306;3013331;-59
2024/04/07 01:28:49;;;;;;;6.00;2.30;;;;;;;11.60;72.94;99477.02;77582;1302;3057027;-61
2024/04/07 01:31:16;;;;;;;4.50;2.10;;;;;;;11.33;73.90;99483.27;78800;1303;3013485;-59
2024/04/07 01:33:43;;;;;;;5.50;2.80;;;;;;;11.29;73.99;99480.01;78789;1302;3013475;-59
2024/04/07 01:36:11;;;;;;;5.80;2.80;;;;;;;11.19;74.13;99483.66;77648;1306;3028366;-58
2024/04/07 01:38:37;;;;;;;6.40;2.70;;;;;;;11.02;75.14;99484.70;78772;1306;3013384;-60
2024/04/07 01:41:04;;;;;;;7.00;3.10;;;;;;;10.93;75.56;99491.51;78782;1303;3011919;-58
2024/04/07 01:43:32;;;;;;;5.50;2.20;;;;;;;10.87;76.50;99490.35;77569;1306;3028336;-59
2024/04/07 01:45:59;;;;;;;5.20;2.50;;;;;;;11.34;75.29;99493.56;78777;1303;3013324;-58
2024/04/07 01:48:26;;;;;;;6.30;2.30;;;;;;;11.73;73.83;99498.61;78797;1303;3013186;-56
2024/04/07 01:50:53;;;;;;;5.00;2.70;;;;;;;11.75;73.16;99498.65;77619;1306;3026088;-57
2024/04/07 01:53:20;;;;;;;5.20;2.60;;;;;;;11.54;73.30;99501.75;78611;1306;3020612;-59
2024/04/07 01:55:47;;;;;;;7.60;2.80;;;;;;;11.38;73.46;99502.59;78898;1306;3012046;-59
2024/04/07 01:58:15;;;;;;;4.60;2.50;;;;;;;11.38;73.17;99508.55;77666;1306;3028940;-58
2024/04/07 02:00:41;;;;;;;4.50;2.70;;;;;;;11.33;72.97;99516.27;78794;1302;3013471;-58
2024/04/07 02:03:08;;;;;;;9.20;2.80;;;;;;;11.22;73.14;99512.74;78575;1303;3012177;-58
2024/04/07 02:05:36;;;;;;;9.60;3.00;;;;;;;11.17;73.49;99514.11;77539;1306;3025781;-59
2024/04/07 02:08:03;;;;;;;5.90;2.90;;;;;;;11.11;73.64;99517.45;78952;1306;3013634;-58
2024/04/07 02:10:30;;;;;;;5.60;3.00;;;;;;;11.07;73.92;99517.16;78966;1306;3011813;-59
2024/04/07 02:12:58;;;;;;;4.10;2.10;;;;;;;11.03;74.30;99522.11;77541;1306;3026168;-57
2024/04/07 02:15:25;;;;;;;4.90;2.80;;;;;;;11.55;73.74;99526.91;78771;1303;3013195;-58
2024/04/07 02:17:52;;;;;;;4.60;2.40;;;;;;;12.00;72.02;99527.63;78909;1303;3011569;-57
2024/04/07 02:20:20;;;;;;;8.30;2.90;;;;;;;12.26;70.18;99530.85;77666;1306;3026054;-59
2024/04/07 02:22:46;;;;;;;5.70;2.50;;;;;;;11.85;71.14;99534.02;78771;1302;3013274;-59
2024/04/07 02:25:13;;;;;;;5.00;2.80;;;;;;;11.79;71.29;99535.98;78822;1303;3013821;-58
2024/04/07 02:27:41;;;;;;;4.50;2.70;;;;;;;11.61;71.51;99537.10;77604;1306;3028792;-59
2024/04/07 02:30:08;;;;;;;8.40;3.60;;;;;;;11.48;71.83;99535.79;78852;1302;3013084;-58
2024/04/07 02:32:35;;;;;;;5.60;3.30;;;;;;;11.36;72.31;99539.73;78687;1303;3012150;-58
2024/04/07 02:35:03;;;;;;;4.80;3.20;;;;;;;11.09;73.85;99542.95;77476;1306;3027250;-58
2024/04/07 02:37:30;;;;;;;7.40;2.70;;;;;;;10.82;75.17;99544.77;78902;1306;3014763;-59
2024/04/07 02:39:58;;;;;;;7.20;2.80;;;;;;;10.69;75.96;99546.23;78750;1303;3013958;-58
2024/04/07 02:42:26;;;;;;;12.60;3.20;;;;;;;10.72;75.54;99547.30;77740;1306;3056392;-60
2024/04/07 02:50:27;;;;;;;4.80;2.60;;;;;;;11.11;75.32;99559.84;77739;1306;3052960;-58
2024/04/07 02:52:54;;;;;;;5.60;2.80;;;;;;;10.90;75.61;99567.59;78753;1306;3013558;-60
2024/04/07 02:55:22;;;;;;;4.90;3.20;;;;;;;10.47;77.16;99568.38;78955;1303;3011806;-58
2024/04/07 02:57:50;;;;;;;4.00;2.70;;;;;;;10.26;78.02;99572.73;77610;1306;3055714;-57
2024/04/07 03:00:17;;;;;;;7.80;2.90;;;;;;;10.06;78.51;99575.41;78921;1303;3013252;-58
2024/04/07 03:02:44;;;;;;;5.80;2.90;;;;;;;9.90;79.58;99574.93;78749;1303;3013236;-57
2024/04/07 03:05:12;;;;;;;7.90;3.40;;;;;;;9.78;80.13;99577.16;77551;1306;3026664;-58
2024/04/07 03:07:39;;;;;;;6.80;3.00;;;;;;;9.65;80.92;99581.06;78893;1306;3013707;-57
2024/04/07 03:10:10;;;;;;;10.20;3.60;;;;;;;9.59;81.37;99582.05;78882;1302;3011553;-58
2024/04/07 03:12:38;;;;;;;5.50;2.50;;;;;;;9.56;81.96;99582.56;77605;1306;3056922;-58
2024/04/07 03:15:51;;;;;;;5.80;2.20;;;;;;;10.27;79.75;99589.80;80207;1302;3012828;-58
2024/04/07 03:18:19;;;;;;;5.60;2.50;;;;;;;10.62;77.37;99591.50;79006;1301;3013080;-57
2024/04/07 03:20:46;;;;;;;9.10;2.80;;;;;;;10.60;77.40;99595.15;79191;1301;3012816;-58
2024/04/07 03:23:14;;;;;;;4.10;2.80;;;;;;;10.41;77.98;99601.98;77995;1304;3025876;-58
2024/04/07 03:25:40;;;;;;;5.60;2.70;;;;;;;10.22;78.76;99609.54;79069;1302;3013312;-58
2024/04/07 03:28:07;;;;;;;5.30;2.80;;;;;;;10.09;79.42;99603.98;78955;1304;3011915;-58
2024/04/07 03:30:35;;;;;;;10.30;2.80;;;;;;;9.89;80.40;99610.33;77981;1300;3025863;-58
2024/04/07 03:33:03;;;;;;;5.20;2.80;;;;;;;9.83;81.07;99610.31;79308;1298;3013407;-58
2024/04/07 03:35:30;;;;;;;9.80;3.40;;;;;;;9.70;81.54;99616.46;79372;1301;3011634;-59
2024/04/07 03:37:57;;;;;;;7.50;2.70;;;;;;;9.73;81.87;99617.34;78121;1298;3052034;-58
2024/04/07 03:40:25;;;;;;;5.20;3.00;;;;;;;10.19;80.22;99613.37;79318;1298;3013164;-59
2024/04/07 03:42:52;;;;;;;8.10;2.80;;;;;;;10.70;77.65;99615.94;79251;1297;3013064;-56
2024/04/07 03:45:20;;;;;;;3.50;2.50;;;;;;;10.66;77.15;99621.05;77951;1299;3049296;-59
2024/04/07 03:47:48;;;;;;;5.70;2.50;;;;;;;10.78;76.19;99618.77;79519;1300;3013658;-59
2024/04/07 03:50:15;;;;;;;4.30;2.70;;;;;;;10.65;76.45;99623.23;79163;1301;3012059;-57
2024/04/07 03:52:42;;;;;;;6.80;3.00;;;;;;;10.35;77.40;99624.55;78019;1300;3051616;-59
2024/04/07 03:55:09;;;;;;;5.00;2.70;;;;;;;10.28;77.91;99626.92;79288;1298;3012846;-58
2024/04/07 03:57:35;;;;;;;4.60;2.70;;;;;;;10.32;77.17;99631.94;79211;1299;3012847;-58
2024/04/07 04:00:04;;;;;;;6.70;2.90;;;;;;;10.31;77.27;99635.11;78054;1300;3026122;-58
2024/04/07 04:02:39;;;;;;;5.10;2.30;;;;;;;10.40;77.52;99635.83;78050;1301;3053855;-60
2024/04/07 04:05:06;;;;;;;7.50;2.90;;;;;;;11.02;75.28;99632.46;79365;1301;3012986;-57
2024/04/07 04:07:33;;;;;;;4.80;3.10;;;;;;;11.05;74.89;99635.38;79251;1301;3011335;-57
2024/04/07 04:10:01;;;;;;;7.80;3.10;;;;;;;11.17;74.40;99638.88;78215;1300;3026516;-58
2024/04/07 04:12:28;;;;;;;8.50;3.10;;;;;;;10.95;74.83;99648.08;79220;1298;3013675;-58
2024/04/07 04:14:56;;;;;;;7.50;3.20;;;;;;;10.92;74.98;99654.73;79150;1300;3011770;-59
2024/04/07 04:17:25;;;;;;;5.90;3.00;;;;;;;10.94;74.25;99654.30;78030;1301;3053832;-59
2024/04/07 04:19:51;;;;;;;6.90;3.00;;;;;;;10.79;74.93;99660.41;79244;1300;3013279;-58
2024/04/07 04:22:18;;;;;;;5.80;3.30;;;;;;;10.73;75.12;99666.02;79230;1300;3011756;-60
2024/04/07 04:24:46;;;;;;;6.00;2.90;;;;;;;10.70;75.10;99665.31;78324;1299;3068868;-58
2024/04/07 04:27:12;;;;;;;6.80;3.00;;;;;;;10.67;75.24;99665.48;79494;1298;3013471;-63
2024/04/07 04:29:39;;;;;;;6.90;3.10;;;;;;;10.54;76.32;99669.41;79186;1301;3011729;-59
2024/04/07 04:32:06;;;;;;;7.80;3.60;;;;;;;11.27;75.52;99667.06;77968;1301;3028228;-60
2024/04/07 04:34:33;;;;;;;7.20;2.80;;;;;;;11.82;72.14;99673.21;79159;1301;3013135;-58
2024/04/07 04:37:00;;;;;;;7.90;3.20;;;;;;;12.18;70.85;99678.83;79219;1301;3011487;-56
2024/04/07 04:39:28;;;;;;;7.10;3.10;;;;;;;12.00;70.04;99684.38;77969;1301;3027745;-56
2024/04/07 04:41:55;;;;;;;5.70;2.90;;;;;;;11.85;70.69;99687.23;79335;1298;3013047;-55
2024/04/07 04:44:21;;;;;;;5.80;3.00;;;;;;;11.62;71.28;99684.21;79363;1301;3011848;-57
2024/04/07 04:46:49;;;;;;;6.40;3.50;;;;;;;11.54;71.51;99688.05;77956;1297;3025651;-59
2024/04/07 04:49:16;;;;;;;8.50;3.60;;;;;;;11.48;71.59;99687.19;79375;1300;3013211;-57
2024/04/07 04:51:43;;;;;;;9.60;4.20;;;;;;;11.33;72.23;99693.35;79248;1301;3012886;-60
2024/04/07 04:54:11;;;;;;;9.00;4.10;;;;;;;11.31;72.71;99692.98;77966;1298;3026170;-59
2024/04/07 04:56:38;;;;;;;6.90;3.50;;;;;;;11.32;72.79;99692.73;79275;1298;3013841;-60
2024/04/07 04:59:05;;;;;;;8.90;3.80;;;;;;;11.34;72.50;99696.64;79323;1297;3012611;-60
2024/04/07 05:01:33;;;;;;;6.80;3.60;;;;;;;11.26;72.77;99696.04;78011;1298;3053517;-58
2024/04/07 05:04:00;;;;;;;11.70;4.30;;;;;;;11.28;72.92;99698.04;79187;1301;3013913;-58
2024/04/07 05:06:27;;;;;;;11.00;4.40;;;;;;;11.20;73.48;99702.89;79244;1301;3011489;-59
2024/04/07 05:08:55;;;;;;;8.70;4.00;;;;;;;11.21;73.38;99698.11;77956;1299;3026019;-57
2024/04/07 05:11:21;;;;;;;9.40;3.60;;;;;;;11.25;73.20;99705.75;79229;1299;3019057;-58
2024/04/07 05:13:48;;;;;;;6.80;3.80;;;;;;;11.39;72.55;99708.06;79283;1298;3011548;-58
2024/04/07 05:16:17;;;;;;;7.30;3.70;;;;;;;11.48;72.37;99712.30;78019;1301;3026412;-58
2024/04/07 05:18:43;;;;;;;10.60;3.70;;;;;;;11.52;71.69;99718.51;79306;1301;3012947;-59
2024/04/07 05:21:11;;;;;;;8.30;4.10;;;;;;;11.57;71.48;99717.87;79393;1299;3011715;-59
2024/04/07 05:23:44;;;;;;;8.20;3.40;;;;;;;11.66;71.05;99728.03;77943;1298;3068300;-57
2024/04/07 05:26:17;;;;;;;11.20;3.50;;;;;;;11.75;70.66;99726.27;79316;1298;3011914;-58
2024/04/07 05:28:45;;;;;;;11.90;3.80;;;;;;;11.67;70.79;99724.82;78036;1301;3057345;-56
2024/04/07 05:31:13;;;;;;;11.40;3.90;;;;;;;11.74;70.66;99725.80;79189;1301;3013620;-58
2024/04/07 05:33:40;;;;;;;10.60;3.80;;;;;;;11.83;70.12;99731.71;79263;1298;3013002;-59
2024/04/07 05:36:08;;;;;;;7.20;3.80;;;;;;;11.97;69.97;99728.30;78114;1301;3053784;-58
2024/04/07 05:38:35;;;;;;;9.60;4.80;;;;;;;12.10;69.76;99730.27;79253;1298;3013097;-59
2024/04/07 05:41:02;;;;;;;9.60;4.10;;;;;;;12.28;68.97;99729.13;79332;1301;3011345;-59
2024/04/07 05:43:33;;;;;;;11.90;3.80;;;;;;;12.33;68.94;99734.98;78009;1301;3026387;-59
2024/04/07 05:46:07;;;;;;;13.80;3.90;;;;;;;12.42;68.38;99735.84;79290;1298;3011721;-57
2024/04/07 05:48:36;;;;;;;8.80;3.80;;;;;;;12.46;68.05;99738.17;78029;1298;3051843;-57
2024/04/07 05:51:03;;;;;;;7.40;3.70;;;;;;;12.56;67.56;99747.35;79246;1298;3019412;-59
2024/04/07 05:53:30;;;;;;;7.20;4.00;;;;;;;12.68;67.17;99745.55;79280;1301;3011820;-58
2024/04/07 05:55:58;;;;;;;10.50;4.40;;;;;;;12.85;66.44;99750.11;78060;1297;3068897;-60
2024/04/07 05:58:24;;;;;;;8.60;3.60;;;;;;;12.82;65.56;99755.22;79529;1298;3013155;-63
2024/04/07 06:00:51;;;;;;;8.60;3.90;;;;;;;12.83;65.47;99761.14;79280;1298;3011899;-57
2024/04/07 06:03:19;;;;;;;11.70;3.70;;;;;;;12.88;65.57;99759.90;78094;1298;3026526;-56
2024/04/07 06:05:46;;;;;;;8.80;3.90;;;;;;;12.90;64.97;99761.89;79375;1298;3018538;-59
2024/04/07 06:08:12;;;;;;;10.20;4.20;;;;;;;12.97;64.97;99761.23;79322;1301;3013480;-62
2024/04/07 06:10:40;;;;;;;13.50;4.60;;;;;;;13.05;65.32;99759.47;78026;1299;3027020;-58
2024/04/07 06:13:07;;;;;;;11.40;4.00;;;;;;;13.14;65.30;99764.15;79242;1298;3013775;-59
2024/04/07 06:15:34;;;;;;;8.30;3.80;;;;;;;13.23;65.03;99769.38;79324;1301;3013113;-60
2024/04/07 06:18:01;;;;;;;8.80;3.50;;;;;;;13.21;64.48;99776.02;78019;1301;3027991;-61
2024/04/07 06:20:28;;;;;;;7.60;3.50;;;;;;;13.37;64.03;99777.63;79978;1301;3020960;-60
2024/04/07 06:22:55;;;;;;;9.40;3.70;;;;;;;13.54;63.72;99782.30;79339;1301;3011926;-59
2024/04/07 06:25:23;;;;;;;6.70;3.30;;;;;;;13.71;63.10;99786.80;78745;1298;3025883;-58
2024/04/07 06:27:49;;;;;;;5.30;3.00;;;;;;;13.84;62.75;99788.92;79397;1301;3013625;-59
2024/04/07 06:30:16;;;;;;;7.50;3.50;;;;;;;14.00;62.15;99791.34;79465;1298;3011769;-58
2024/04/07 06:32:46;;;;;;;7.40;2.80;;;;;;;14.13;62.06;99793.95;77993;1301;3028559;-61
2024/04/07 06:35:12;;;;;;;7.00;3.20;;;;;;;14.23;61.38;99799.02;80095;1298;3012858;-59
2024/04/07 06:37:39;;;;;;;8.70;3.20;;;;;;;14.37;61.11;99797.89;79553;1298;3011484;-59
2024/04/07 06:40:10;;;;;;;6.40;3.00;;;;;;;14.42;59.97;99801.01;78460;1298;3068184;-59
2024/04/07 06:42:37;;;;;;;6.80;2.90;;;;;;;14.50;59.80;99801.55;79870;1298;3013595;-59
2024/04/07 06:45:06;;;;;;;7.50;2.90;;;;;;;14.58;59.14;99804.66;78720;1301;3011893;-57
2024/04/07 06:47:34;;;;;;;6.80;3.20;;;;;;;14.67;59.03;99800.18;79328;1298;3013528;-58
2024/04/07 06:50:01;;;;;;;6.90;2.70;;;;;;;14.72;57.40;99802.80;79306;1298;3011643;-60
2024/04/07 06:52:29;;;;;;;5.50;3.10;;;;;;;14.78;56.58;99801.36;78111;1297;3052030;-58
2024/04/07 06:54:55;;;;;;;6.40;2.90;;;;;;;14.94;56.36;99804.23;79266;1301;3018754;-59
2024/04/07 06:57:22;;;;;;;8.00;2.90;;;;;;;15.00;55.23;99806.09;79363;1298;3012734;-61
2024/04/07 06:59:51;;;;;;;9.40;2.50;;;;;;;15.13;55.29;99807.06;78024;1297;3027514;-61
2024/04/07 07:02:18;;;;;;;5.50;2.50;;;;;;;15.21;54.34;99805.18;79350;1299;3013450;-60
2024/04/07 07:04:47;;;;;;;7.90;2.40;;;;;;;15.32;53.55;99811.14;79410;1298;3011715;-60
2024/04/07 07:07:15;;;;;;;6.90;2.70;;;;;;;15.34;52.82;99812.08;78014;1301;3052569;-61
2024/04/07 07:09:42;;;;;;;8.60;2.60;;;;;;;15.30;53.08;99813.59;79349;1298;3013288;-59
2024/04/07 07:12:09;;;;;;;7.10;2.50;;;;;;;15.38;53.39;99813.35;79640;1298;3013602;-59
2024/04/07 07:14:37;;;;;;;8.50;2.60;;;;;;;15.41;53.24;99812.36;78022;1301;3028697;-62
2024/04/07 07:17:04;;;;;;;8.30;2.40;;;;;;;15.64;53.64;99811.15;79275;1298;3018192;-60
2024/04/07 07:19:31;;;;;;;10.10;2.50;;;;;;;15.79;52.78;99818.73;79750;1299;3011643;-60
2024/04/07 07:21:59;;;;;;;4.70;1.90;;;;;;;15.98;53.12;99825.09;78337;1297;3054327;-58
2024/04/07 07:24:26;;;;;;;4.10;1.90;;;;;;;16.12;52.12;99827.28;79423;1301;3013291;-59
2024/04/07 07:26:52;;;;;;;9.60;2.10;;;;;;;16.24;51.42;99826.75;79768;1297;3011638;-60
2024/04/07 07:29:20;;;;;;;6.00;2.00;;;;;;;16.34;50.80;99831.11;78362;1298;3029281;-59
2024/04/07 07:31:47;;;;;;;4.70;2.50;;;;;;;16.37;49.52;99828.54;79638;1298;3013001;-60
2024/04/07 07:34:14;;;;;;;9.60;2.40;;;;;;;16.45;49.82;99828.77;79431;1297;3011856;-60
2024/04/07 07:36:43;;;;;;;8.90;2.30;;;;;;;16.46;48.96;99832.97;78017;1298;3052458;-57
2024/04/07 07:39:10;;;;;;;3.80;1.90;;;;;;;16.51;48.87;99832.59;79488;1298;3013560;-61
2024/04/07 07:41:37;;;;;;;8.30;2.20;;;;;;;16.62;49.76;99826.59;79455;1298;3012673;-60
2024/04/07 07:44:05;;;;;;;7.00;1.60;;;;;;;16.75;49.45;99824.11;78228;1297;3055144;-61
2024/04/07 07:46:31;;;;;;;3.90;1.80;;;;;;;16.83;48.85;99824.04;79484;1299;3013351;-60
2024/04/07 07:48:58;;;;;;;5.30;2.00;;;;;;;16.96;49.04;99827.58;79719;1299;3012949;-63
2024/04/07 07:51:26;;;;;;;9.40;2.50;;;;;;;17.11;48.68;99832.75;78116;1301;3028987;-61
2024/04/07 07:53:53;;;;;;;11.30;2.20;;;;;;;17.11;48.12;99835.36;79446;1297;3013337;-61
2024/04/07 07:56:19;;;;;;;6.30;1.60;;;;;;;17.21;47.00;99843.05;79587;1297;3011433;-60
2024/04/07 07:58:47;;;;;;;7.20;1.60;;;;;;;17.35;47.02;99840.84;78250;1301;3026123;-60
2024/04/07 08:01:14;;;;;;;4.90;1.60;;;;;;;17.39;46.74;99842.46;79345;1298;3020549;-60
2024/04/07 08:03:41;;;;;;;9.60;1.70;;;;;;;17.37;46.39;99838.95;79730;1298;3013263;-60
2024/04/07 08:06:08;;;;;;;4.90;1.60;;;;;;;17.53;46.61;99835.30;78192;1301;3028296;-61
2024/04/07 08:08:35;;;;;;;9.10;1.70;;;;;;;17.73;46.68;99835.06;79385;1300;3013242;-62
2024/04/07 08:11:03;;;;;;;8.40;2.30;;;;;;;17.80;46.82;99838.89;80007;1297;3011392;-61
2024/04/07 08:13:32;;;;;;;7.50;1.70;;;;;;;17.93;47.02;99845.58;78024;1301;3056000;-61
2024/04/07 08:15:58;;;;;;;5.20;1.30;;;;;;;18.05;45.37;99850.24;79405;1299;3013980;-61
2024/04/07 08:18:25;;;;;;;3.80;1.30;;;;;;;18.16;44.53;99851.76;79188;1298;3013172;-62
2024/04/07 08:20:53;;;;;;;3.10;1.20;;;;;;;18.33;44.03;99858.30;77934;1301;3052127;-62
2024/04/07 08:23:20;;;;;;;7.00;1.40;;;;;;;18.43;42.90;99863.78;79277;1301;3013107;-62
2024/04/07 08:25:46;;;;;;;5.90;1.30;;;;;;;18.58;44.18;99858.05;79443;1298;3011673;-62
2024/04/07 08:28:14;;;;;;;6.50;1.30;;;;;;;18.63;42.94;99863.67;78229;1298;3026917;-59
2024/04/07 08:30:41;;;;;;;6.80;1.30;;;;;;;18.59;43.03;99862.98;79503;1298;3013815;-59
2024/04/07 08:33:07;;;;;;;4.00;1.40;;;;;;;18.70;43.30;99861.64;79205;1298;3011586;-59
2024/04/07 08:35:35;;;;;;;2.50;1.10;;;;;;;18.94;43.59;99863.30;77831;1301;3026311;-59
2024/04/07 08:38:02;;;;;;;2.70;0.90;;;;;;;19.01;42.21;99860.90;79381;1301;3012761;-60
2024/04/07 08:40:29;;;;;;;4.50;1.40;;;;;;;19.06;42.48;99859.32;79432;1301;3011498;-59
2024/04/07 08:42:57;;;;;;;2.70;1.20;;;;;;;19.12;42.45;99859.55;78349;1299;3028967;-60
2024/04/07 08:45:24;;;;;;;4.10;1.40;;;;;;;19.08;42.33;99859.00;79336;1295;3013436;-60
2024/04/07 08:47:50;;;;;;;3.90;1.30;;;;;;;19.01;41.86;99857.34;79293;1296;3011633;-59
2024/04/07 08:50:19;;;;;;;2.50;1.20;;;;;;;19.10;41.59;99852.59;78083;1299;3026463;-64
2024/04/07 08:52:45;;;;;;;3.10;1.10;;;;;;;19.23;42.14;99860.70;79369;1297;3013504;-60
2024/04/07 08:55:12;;;;;;;2.50;1.00;;;;;;;19.26;41.24;99863.26;79371;1295;3011368;-59
2024/04/07 08:57:40;;;;;;;3.20;1.30;;;;;;;19.34;40.56;99864.46;78166;1295;3055136;-58
2024/04/07 09:00:08;;;;;;;2.90;1.10;;;;;;;19.42;39.74;99864.99;79310;1296;3013222;-58
2024/04/07 09:02:35;;;;;;;2.30;1.00;;;;;;;19.60;39.59;99863.02;79404;1295;3014275;-59
2024/04/07 09:05:04;;;;;;;8.50;1.00;;;;;;;19.75;39.64;99859.44;78306;1299;3052574;-61
2024/04/07 09:07:31;;;;;;;1.20;0.80;;;;;;;19.94;39.46;99862.92;79418;1297;3013456;-61
2024/04/07 09:09:57;;;;;;;3.80;1.10;;;;;;;20.12;38.83;99861.96;79322;1299;3013675;-58
2024/04/07 09:12:25;;;;;;;2.10;1.10;;;;;;;20.24;38.42;99864.17;78215;1295;3056623;-58
2024/04/07 09:14:52;;;;;;;3.60;0.90;;;;;;;20.26;37.54;99865.80;79321;1295;3013563;-61
2024/04/07 09:17:19;;;;;;;4.20;0.80;;;;;;;20.17;37.75;99872.27;79352;1295;3013452;-59
2024/04/07 09:19:47;;;;;;;4.60;1.10;;;;;;;20.24;37.50;99873.82;78304;1301;3027083;-58
2024/04/07 09:22:13;;;;;;;1.50;0.70;;;;;;;20.45;36.54;99878.07;79297;1301;3018892;-59
2024/04/07 09:24:40;;;;;;;3.60;0.90;;;;;;;20.62;36.07;99877.52;79362;1295;3011576;-60
2024/04/07 09:27:12;;;;;;;4.50;1.20;;;;;;;20.83;35.70;99874.47;79088;1295;3026187;-58
2024/04/07 09:29:40;;;;;;;6.00;1.00;;;;;;;20.92;34.97;99877.77;79539;1295;3011628;-59
2024/04/07 09:32:08;;;;;;;4.00;0.90;;;;;;;20.89;34.87;99876.68;78452;1298;3052654;-61
2024/04/07 09:34:38;;;;;;;4.90;1.10;;;;;;;20.96;34.75;99878.01;80457;1301;3013414;-60
2024/04/07 09:37:06;;;;;;;2.30;1.10;;;;;;;20.72;35.36;99883.44;78893;1294;3013259;-58
2024/04/07 09:39:33;;;;;;;3.50;1.20;;;;;;;20.86;35.30;99881.41;80814;1295;3018920;-57
2024/04/07 09:42:01;;;;;;;6.60;1.40;;;;;;;21.07;35.70;99881.88;79515;1295;3011940;-58
2024/04/07 09:44:33;;;;;;;6.30;1.50;;;;;;;21.04;34.65;99885.58;79085;1295;3055892;-60
2024/04/07 09:47:08;;;;;;;2.60;1.10;;;;;;;21.21;34.37;99887.27;79933;1295;3011612;-59
2024/04/07 09:49:38;;;;;;;3.00;0.90;;;;;;;21.40;34.23;99882.89;79835;1295;3052608;-58
2024/04/07 09:52:05;;;;;;;4.50;1.50;;;;;;;21.60;34.52;99881.11;81945;1295;3012996;-56
2024/04/07 09:54:40;;;;;;;1.70;0.70;;;;;;;21.76;33.13;99882.02;81932;1300;3012851;-59
2024/04/07 09:57:08;;;;;;;4.80;1.00;;;;;;;21.89;32.72;99879.41;80649;1298;3068479;-59
2024/04/07 09:59:37;;;;;;;3.80;1.00;;;;;;;21.93;31.65;99878.99;81963;1298;3011365;-57
2024/04/07 10:02:06;;;;;;;3.00;1.00;;;;;;;22.09;31.86;99877.63;80230;1295;3013121;-60
2024/04/07 10:04:33;;;;;;;6.00;1.10;;;;;;;22.20;31.80;99876.52;79649;1295;3013281;-60
2024/04/07 10:07:01;;;;;;;4.90;0.90;;;;;;;22.25;31.37;99882.73;79722;1295;3011679;-58
2024/04/07 10:09:29;;;;;;;2.40;1.20;;;;;;;22.35;31.32;99886.73;77966;1301;3052901;-60
2024/04/07 10:11:56;;;;;;;2.80;1.00;;;;;;;22.32;31.16;99888.83;79545;1295;3012804;-61
2024/04/07 10:14:22;;;;;;;4.50;0.90;;;;;;;22.31;30.89;99889.13;79489;1299;3011645;-60
2024/04/07 10:16:51;;;;;;;5.80;1.20;;;;;;;22.27;31.21;99885.26;78107;1296;3026498;-58
2024/04/07 10:19:18;;;;;;;2.30;0.80;;;;;;;21.99;31.44;99879.69;79898;1295;3013358;-59
2024/04/07 10:21:45;;;;;;;4.60;1.00;;;;;;;21.70;32.08;99881.70;79366;1295;3011758;-58
2024/04/07 10:24:13;;;;;;;2.50;1.40;;;;;;;21.67;32.57;99876.89;78263;1301;3052497;-60
2024/04/07 10:26:40;;;;;;;2.60;1.40;;;;;;;21.55;32.79;99882.31;79319;1303;3013592;-56
2024/04/07 10:29:07;;;;;;;5.90;1.10;;;;;;;21.42;33.06;99877.16;79573;1302;3011638;-59
2024/04/07 10:31:38;;;;;;;5.00;1.10;;;;;;;21.51;33.35;99877.89;78271;1300;3026870;-61
2024/04/07 10:34:05;;;;;;;6.40;1.30;;;;;;;21.78;33.06;99879.49;79372;1299;3013892;-62
2024/04/07 10:36:34;;;;;;;3.80;1.10;;;;;;;21.93;32.20;99875.18;78860;1303;3013182;-60
2024/04/07 10:39:00;;;;;;;4.00;1.10;;;;;;;21.88;32.63;99880.98;79364;1301;3013336;-61
2024/04/07 10:41:28;;;;;;;5.10;1.30;;;;;;;21.84;32.51;99881.95;79432;1295;3013298;-59
2024/04/07 10:43:56;;;;;;;4.70;1.60;;;;;;;21.72;32.92;99881.64;78073;1295;3026773;-62
2024/04/07 10:46:22;;;;;;;5.90;1.20;;;;;;;21.64;33.05;99885.44;79426;1300;3013045;-60
2024/04/07 10:48:50;;;;;;;8.70;1.40;;;;;;;21.57;33.33;99885.57;79401;1300;3011595;-60
2024/04/07 10:51:19;;;;;;;5.50;1.50;;;;;;;21.38;33.22;99883.10;78386;1300;3026259;-60
2024/04/07 10:53:46;;;;;;;2.70;1.20;;;;;;;21.25;33.50;99883.52;79653;1295;3012109;-58
2024/04/07 10:56:13;;;;;;;4.30;1.00;;;;;;;21.29;33.00;99886.14;79499;1299;3011633;-60
2024/04/07 10:58:42;;;;;;;2.90;1.00;;;;;;;21.69;32.59;99882.71;78348;1295;3068512;-61
2024/04/07 11:01:09;;;;;;;5.00;2.40;;;;;;;22.06;32.25;99881.35;79293;1300;3018774;-60
2024/04/07 11:03:38;;;;;;;4.20;1.60;;;;;;;22.28;32.15;99882.08;79330;1301;3013204;-59
2024/04/07 11:06:06;;;;;;;4.50;1.30;;;;;;;22.37;31.50;99881.02;78244;1295;3053481;-63
2024/04/07 11:08:33;;;;;;;6.00;1.70;;;;;;;22.45;31.32;99881.66;79828;1298;3013253;-59
2024/04/07 11:11:02;;;;;;;4.30;1.50;;;;;;;22.32;31.76;99881.31;79757;1301;3011792;-59
2024/04/07 11:13:30;;;;;;;4.70;1.30;;;;;;;21.95;32.15;99880.25;78245;1295;3069197;-60
2024/04/07 11:15:58;;;;;;;4.60;1.20;;;;;;;21.92;32.30;99879.83;79975;1295;3012919;-61
2024/04/07 11:18:25;;;;;;;4.30;1.50;;;;;;;21.97;32.17;99879.66;79958;1295;3013310;-59
2024/04/07 11:20:59;;;;;;;4.60;1.00;;;;;;;22.15;32.03;99879.13;78473;1295;3053230;-55
2024/04/07 11:23:28;;;;;;;3.70;0.80;;;;;;;22.12;31.77;99881.21;79076;1297;3011868;-60